Time;durP1;ratioP1;P1;durP2;ratioP2;P2;SDS_P1;SDS_P2;PMS_P1;PMS_P2;Temp;Humidity;BMP_temperature;BMP_pressure;BME280_temperature;BME280_humidity;BME280_pressure;Samples;Min_cycle;Max_cycle;Signal;HPM_P1;HPM_P2
2022/02/23 00:02:21;;;;;;;2.30;1.10;;;;;;;8.96;65.69;99606.78;5076021;28;20214;-73
2022/02/23 00:04:50;;;;;;;3.30;0.93;;;;;;;8.92;66.66;99608.22;5088024;22;20299;-74
2022/02/23 00:07:19;;;;;;;3.83;1.00;;;;;;;8.79;67.43;99591.19;5072070;28;20262;-75
2022/02/23 00:09:52;;;;;;;2.10;0.90;;;;;;;8.81;66.71;99589.16;5077166;28;20227;-73
2022/02/23 00:12:22;;;;;;;3.30;1.00;;;;;;;8.75;66.87;99584.63;5037329;28;20670;-75
2022/02/23 00:14:51;;;;;;;1.97;1.00;;;;;;;8.72;67.36;99578.91;5051066;28;20228;-74
2022/02/23 00:17:20;;;;;;;2.37;0.80;;;;;;;8.73;66.85;99570.66;5053683;28;20217;-74
2022/02/23 00:19:47;;;;;;;0.93;0.50;;;;;;;8.72;67.08;99561.03;5051601;28;20235;-74
2022/02/23 00:22:16;;;;;;;3.23;0.90;;;;;;;8.69;66.81;99564.09;5070690;28;20230;-74
2022/02/23 00:24:56;;;;;;;3.67;1.00;;;;;;;8.69;66.79;99568.63;5085383;28;20205;-74
2022/02/23 00:27:25;;;;;;;2.30;0.87;;;;;;;8.64;66.67;99550.53;5074841;28;20203;-75
2022/02/23 00:30:04;;;;;;;1.77;0.70;;;;;;;8.63;66.83;99524.84;5050166;28;20226;-74
2022/02/23 00:32:31;;;;;;;3.20;0.93;;;;;;;8.67;66.98;99538.63;5019652;28;20229;-74
2022/02/23 00:35:06;;;;;;;0.90;0.60;;;;;;;8.68;66.60;99540.25;5059633;28;20216;-73
2022/02/23 00:37:43;;;;;;;2.67;0.70;;;;;;;8.65;66.38;99536.16;5027102;28;20237;-74
2022/02/23 00:40:15;;;;;;;1.53;0.70;;;;;;;8.77;65.64;99531.81;5035707;28;20234;-74
2022/02/23 00:42:53;;;;;;;2.40;0.60;;;;;;;8.74;65.66;99524.22;5072801;28;20295;-75
2022/02/23 00:45:27;;;;;;;2.80;0.67;;;;;;;8.71;65.70;99524.66;5077720;23;20243;-73
2022/02/23 00:47:54;;;;;;;1.27;0.60;;;;;;;8.74;64.64;99526.06;5052772;23;20235;-73
2022/02/23 00:50:24;;;;;;;1.40;0.70;;;;;;;8.73;65.29;99527.91;5048062;28;20262;-74
2022/02/23 00:52:51;;;;;;;1.63;0.60;;;;;;;8.67;65.52;99527.97;5045699;28;20714;-74
2022/02/23 00:55:20;;;;;;;0.50;0.50;;;;;;;8.66;65.60;99542.34;4791866;23;7429391;-73
2022/02/23 00:57:47;;;;;;;1.37;0.70;;;;;;;8.75;65.12;99533.06;5087235;28;20208;-73
2022/02/23 01:00:18;;;;;;;1.20;0.90;;;;;;;8.77;65.04;99533.69;5097409;22;20224;-74
2022/02/23 01:02:51;;;;;;;0.90;0.70;;;;;;;8.76;65.48;99529.38;5062058;28;20251;-73
2022/02/23 01:05:21;;;;;;;1.33;0.60;;;;;;;8.86;64.95;99544.97;5059111;23;20240;-75
2022/02/23 01:07:50;;;;;;;1.83;0.60;;;;;;;8.86;65.33;99542.28;5060733;23;20268;-74
2022/02/23 01:10:19;;;;;;;1.27;0.90;;;;;;;8.80;66.04;99544.75;5038564;28;20615;-75
2022/02/23 01:12:47;;;;;;;0.93;0.60;;;;;;;8.79;66.69;99555.66;5048989;28;20280;-74
2022/02/23 01:15:20;;;;;;;2.80;0.77;;;;;;;8.75;66.79;99547.25;5049457;28;20229;-75
2022/02/23 01:17:51;;;;;;;2.33;0.80;;;;;;;8.87;66.34;99549.25;5061058;23;20229;-74
2022/02/23 01:20:21;;;;;;;1.97;0.70;;;;;;;8.87;66.59;99557.25;5062090;23;20260;-73
2022/02/23 01:22:59;;;;;;;2.03;0.70;;;;;;;8.77;67.27;99547.84;5043559;23;20242;-74
2022/02/23 01:25:31;;;;;;;2.43;0.80;;;;;;;8.78;67.29;99546.81;5076307;22;20294;-73
2022/02/23 01:28:04;;;;;;;1.30;0.80;;;;;;;8.76;67.55;99540.06;5053688;28;20224;-75
2022/02/23 01:30:37;;;;;;;2.77;0.90;;;;;;;8.78;67.58;99546.81;5051932;28;20226;-73
2022/02/23 01:33:05;;;;;;;1.10;0.80;;;;;;;8.64;68.26;99542.53;5069681;28;20237;-73
2022/02/23 01:35:38;;;;;;;1.80;0.60;;;;;;;8.66;68.37;99537.81;5057611;28;20228;-75
2022/02/23 01:38:07;;;;;;;1.37;0.60;;;;;;;8.73;67.73;99546.63;5056612;28;20677;-73
2022/02/23 01:40:34;;;;;;;2.13;0.80;;;;;;;8.68;68.52;99530.41;5049236;28;20233;-75
2022/02/23 01:43:16;;;;;;;1.90;0.73;;;;;;;8.68;68.48;99527.72;5069035;28;20563;-76
2022/02/23 01:45:47;;;;;;;1.33;0.70;;;;;;;8.75;68.05;99511.69;5075382;28;20275;-73
2022/02/23 01:48:15;;;;;;;2.43;0.83;;;;;;;8.77;67.93;99523.78;5088357;22;20233;-73
2022/02/23 01:50:52;;;;;;;2.23;0.70;;;;;;;8.86;67.23;99523.59;5035523;23;20293;-73
2022/02/23 01:53:21;;;;;;;1.37;0.70;;;;;;;8.78;67.76;99514.75;5029725;28;20242;-74
2022/02/23 01:55:56;;;;;;;1.90;0.80;;;;;;;8.86;66.85;99510.22;5027266;28;20285;-74
2022/02/23 01:58:29;;;;;;;2.13;0.80;;;;;;;9.00;66.40;99514.50;5034751;28;20234;-74
2022/02/23 02:00:57;;;;;;;2.10;0.80;;;;;;;9.04;66.11;99521.03;5028068;28;20223;-75
2022/02/23 02:03:27;;;;;;;2.03;0.60;;;;;;;8.92;66.81;99520.03;5032929;28;20222;-73
2022/02/23 02:05:54;;;;;;;1.70;0.60;;;;;;;8.90;66.67;99524.81;5020180;28;20587;-73
2022/02/23 02:08:26;;;;;;;1.77;0.80;;;;;;;8.97;66.09;99504.19;5026903;23;20210;-73
2022/02/23 02:11:01;;;;;;;1.70;0.60;;;;;;;8.43;68.48;99501.91;5062571;28;20223;-73
2022/02/23 02:13:42;;;;;;;1.33;0.60;;;;;;;8.48;68.47;99489.59;5065801;28;20229;-74
2022/02/23 02:16:16;;;;;;;1.80;0.80;;;;;;;8.56;68.72;99484.00;5061419;28;20658;-73
2022/02/23 02:18:50;;;;;;;1.90;0.70;;;;;;;8.59;68.71;99494.25;5066616;28;20303;-74
2022/02/23 02:21:47;;;;;;;2.67;0.70;;;;;;;8.66;68.58;99486.25;5072925;28;20224;-73
2022/02/23 02:24:36;;;;;;;2.23;0.50;;;;;;;8.69;68.57;99496.50;5063948;28;20255;-73
2022/02/23 02:27:17;;;;;;;1.53;0.60;;;;;;;8.70;68.50;99493.63;5074215;23;20255;31
2022/02/23 02:29:52;;;;;;;2.30;0.70;;;;;;;8.73;68.46;99484.34;4977689;28;20244;-73
2022/02/23 02:32:22;;;;;;;0.90;0.50;;;;;;;8.79;68.04;99478.19;4988011;28;20306;-76
2022/02/23 02:34:49;;;;;;;1.73;0.60;;;;;;;8.84;68.71;99465.84;4987595;28;20367;-75
2022/02/23 02:37:19;;;;;;;1.87;0.57;;;;;;;8.84;72.65;99468.50;4987732;28;20287;-75
2022/02/23 02:39:55;;;;;;;1.43;0.60;;;;;;;8.86;75.95;99467.47;4993211;28;20225;-74
2022/02/23 02:42:28;;;;;;;2.93;0.80;;;;;;;8.75;78.46;99463.63;5009399;23;20695;-74
2022/02/23 02:45:04;;;;;;;1.97;0.60;;;;;;;8.54;79.92;99466.56;5038212;23;20260;-73
2022/02/23 02:47:33;;;;;;;1.77;0.50;;;;;;;8.49;79.94;99466.38;5051884;28;20225;-73
2022/02/23 02:50:03;;;;;;;1.47;0.70;;;;;;;8.52;78.85;99472.13;5064075;28;20225;-73
2022/02/23 02:52:57;;;;;;;1.40;0.60;;;;;;;8.53;78.64;99488.97;5066189;28;20264;-74
2022/02/23 02:55:31;;;;;;;1.43;0.50;;;;;;;8.39;79.36;99482.84;5064841;28;20302;-74
2022/02/23 02:58:00;;;;;;;0.77;0.40;;;;;;;8.44;79.36;99479.53;5056763;22;20690;-73
2022/02/23 03:00:43;;;;;;;2.13;0.90;;;;;;;8.52;77.78;99490.81;5043541;23;20221;-74
2022/02/23 03:03:33;;;;;;;0.93;0.60;;;;;;;8.51;77.38;99483.81;5051798;23;20225;-74
2022/02/23 03:06:11;;;;;;;0.73;0.40;;;;;;;8.63;75.59;99481.34;5042230;28;20257;-74
2022/02/23 03:08:40;;;;;;;0.63;0.40;;;;;;;8.55;75.75;99485.03;5043117;28;20230;-73
2022/02/23 03:11:08;;;;;;;1.70;0.50;;;;;;;8.56;75.49;99491.19;5045386;28;20245;-76
2022/02/23 03:13:40;;;;;;;1.10;0.37;;;;;;;8.72;74.26;99488.91;5037199;28;20532;-74
2022/02/23 03:16:17;;;;;;;1.50;0.63;;;;;;;8.79;73.77;99487.03;5029687;28;20244;-73
2022/02/23 03:18:58;;;;;;;1.17;0.53;;;;;;;8.86;74.29;99470.16;5044328;23;20221;-74
2022/02/23 03:21:33;;;;;;;1.87;0.63;;;;;;;8.89;77.82;99491.09;5069775;28;20229;-74
2022/02/23 03:24:02;;;;;;;0.87;0.40;;;;;;;8.73;84.35;99473.69;5068958;28;20245;-74
2022/02/23 03:26:36;;;;;;;2.40;0.50;;;;;;;8.69;88.25;99462.59;5069804;28;20237;-73
2022/02/23 03:29:09;;;;;;;1.37;0.50;;;;;;;8.51;96.43;99473.13;5051316;28;20239;-75
2022/02/23 03:31:36;;;;;;;0.73;0.47;;;;;;;8.34;96.90;99458.63;5066563;28;20229;-74
2022/02/23 03:34:03;;;;;;;0.87;0.37;;;;;;;8.20;96.06;99451.63;5061234;28;20591;-74
2022/02/23 03:36:31;;;;;;;1.17;0.40;;;;;;;8.30;94.00;99452.88;5062846;28;20222;-74
2022/02/23 03:38:58;;;;;;;1.23;0.40;;;;;;;8.18;91.67;99462.50;5050693;28;20245;-74
2022/02/23 03:41:44;;;;;;;0.70;0.33;;;;;;;8.19;92.13;99456.16;5070034;28;20297;-76
2022/02/23 03:44:12;;;;;;;0.67;0.30;;;;;;;8.14;91.25;99471.97;5069683;28;20308;-74
2022/02/23 03:46:42;;;;;;;0.93;0.40;;;;;;;8.28;90.75;99480.75;5039499;23;20297;-74
2022/02/23 03:49:15;;;;;;;1.07;0.30;;;;;;;8.32;88.25;99495.34;5013758;22;20222;-73
2022/02/23 03:52:02;;;;;;;0.70;0.30;;;;;;;8.33;87.17;99491.66;5026998;28;20213;-75
2022/02/23 03:54:34;;;;;;;1.07;0.30;;;;;;;8.30;87.36;99500.94;5040320;23;20219;-74
2022/02/23 03:57:32;;;;;;;0.40;0.40;;;;;;;8.33;87.26;99513.03;5070748;28;20709;-75
2022/02/23 04:00:22;;;;;;;2.03;0.50;;;;;;;8.39;85.21;99506.88;5076683;23;20234;-73
2022/02/23 04:02:58;;;;;;;1.77;0.40;;;;;;;8.31;84.70;99520.41;5065015;22;20218;-74
2022/02/23 04:05:33;;;;;;;0.70;0.40;;;;;;;8.39;84.32;99520.22;5060805;23;20226;-75
2022/02/23 04:08:16;;;;;;;0.47;0.40;;;;;;;8.40;86.42;99522.66;5038664;28;20209;-73
2022/02/23 04:10:48;;;;;;;0.50;0.40;;;;;;;8.46;88.08;99513.00;5054230;28;20200;-73
2022/02/23 04:13:22;;;;;;;0.70;0.43;;;;;;;8.37;89.50;99515.06;5052247;23;20293;-74
2022/02/23 04:16:04;;;;;;;0.70;0.30;;;;;;;8.29;90.80;99517.97;5052098;28;20285;-73
2022/02/23 04:18:56;;;;;;;0.50;0.30;;;;;;;8.24;90.98;99515.06;5046795;28;20245;-73
2022/02/23 04:21:30;;;;;;;0.70;0.40;;;;;;;8.07;90.20;99518.38;5060932;23;20218;-76
2022/02/23 04:24:01;;;;;;;0.73;0.40;;;;;;;8.29;87.09;99535.78;5041685;28;20199;-76
2022/02/23 04:26:33;;;;;;;0.30;0.30;;;;;;;8.25;87.84;99521.22;5052947;28;20256;-74
2022/02/23 04:29:10;;;;;;;0.53;0.30;;;;;;;8.23;87.57;99516.09;5047066;28;20285;-75
2022/02/23 04:31:40;;;;;;;1.27;0.40;;;;;;;8.11;88.74;99514.25;5049430;28;20629;-73
2022/02/23 04:34:23;;;;;;;0.50;0.50;;;;;;;8.21;87.92;99512.00;5041367;28;20222;-75
2022/02/23 04:36:54;;;;;;;0.90;0.30;;;;;;;8.28;87.01;99518.97;5042380;28;20241;-73
2022/02/23 04:39:30;;;;;;;0.73;0.43;;;;;;;8.18;88.75;99526.56;5052513;28;20280;-76
2022/02/23 04:42:02;;;;;;;0.60;0.30;;;;;;;8.11;89.93;99539.09;5042287;28;20231;-73
2022/02/23 04:44:29;;;;;;;1.33;0.40;;;;;;;8.23;88.35;99525.94;5043494;28;20640;-73
2022/02/23 04:46:59;;;;;;;1.33;0.40;;;;;;;8.27;88.28;99529.84;5037202;28;20226;-74
2022/02/23 04:49:40;;;;;;;1.00;0.40;;;;;;;8.43;85.89;99540.13;5045106;28;20293;-74
2022/02/23 04:52:10;;;;;;;0.53;0.40;;;;;;;8.43;87.02;99533.97;5037757;28;20288;-74
2022/02/23 04:54:37;;;;;;;1.37;0.40;;;;;;;8.39;88.00;99529.03;5034533;28;20688;-75
2022/02/23 04:59:57;;;;;;;0.40;0.30;;;;;;;8.43;86.04;99533.97;5026013;28;20237;-74
2022/02/23 05:02:34;;;;;;;1.63;0.60;;;;;;;8.43;86.28;99533.97;5013238;28;20249;-74
2022/02/23 05:05:06;;;;;;;0.90;0.40;;;;;;;8.39;86.89;99544.25;5020317;28;20230;-73
2022/02/23 05:07:36;;;;;;;0.63;0.30;;;;;;;8.27;87.24;99540.50;5022796;28;20223;-73
2022/02/23 05:10:06;;;;;;;0.50;0.40;;;;;;;8.36;87.36;99545.47;5047286;23;20329;-74
2022/02/23 05:12:34;;;;;;;0.60;0.30;;;;;;;8.60;85.24;99540.50;5045409;28;20230;-74
2022/02/23 05:15:05;;;;;;;0.90;0.40;;;;;;;8.56;85.97;99549.94;5044737;28;20259;-73
2022/02/23 05:17:37;;;;;;;0.77;0.33;;;;;;;8.52;86.13;99565.56;5044222;28;20696;-74
2022/02/23 05:20:12;;;;;;;0.33;0.20;;;;;;;8.43;86.98;99555.31;5043575;22;20528;-75
2022/02/23 05:22:49;;;;;;;0.80;0.30;;;;;;;8.37;88.06;99560.44;5022423;28;20318;-73
2022/02/23 05:25:30;;;;;;;0.60;0.40;;;;;;;8.47;87.31;99557.38;5024701;28;20597;-74
2022/02/23 05:28:03;;;;;;;0.30;0.30;;;;;;;8.40;87.37;99568.03;5007295;23;20689;-73
2022/02/23 05:30:31;;;;;;;0.50;0.40;;;;;;;8.51;87.18;99558.59;5001862;28;20250;-75
2022/02/23 05:32:58;;;;;;;1.30;0.40;;;;;;;8.51;87.11;99549.75;5025525;28;20223;-74
2022/02/23 05:35:32;;;;;;;0.60;0.30;;;;;;;8.32;87.32;99567.44;5037585;23;20229;-74
2022/02/23 05:38:01;;;;;;;1.00;0.50;;;;;;;8.29;89.04;99581.16;5041221;28;20659;-74
2022/02/23 05:40:44;;;;;;;0.63;0.40;;;;;;;8.42;87.32;99575.84;5065416;23;20228;-74
2022/02/23 05:43:21;;;;;;;1.00;0.50;;;;;;;8.42;86.37;99596.38;5051545;28;20236;-76
2022/02/23 05:45:48;;;;;;;1.23;0.40;;;;;;;8.27;87.74;99602.72;5058103;28;20233;-75
2022/02/23 05:48:20;;;;;;;0.33;0.33;;;;;;;8.36;87.63;99600.69;5059041;28;20233;-74
2022/02/23 05:50:54;;;;;;;1.27;0.40;;;;;;;8.37;87.34;99616.50;5060432;28;20297;-73
2022/02/23 05:53:28;;;;;;;1.50;0.50;;;;;;;8.35;88.02;99631.91;5068403;28;20233;-73
2022/02/23 05:56:04;;;;;;;1.50;0.60;;;;;;;8.25;89.84;99638.66;5068353;28;20240;-73
2022/02/23 05:58:42;;;;;;;0.43;0.43;;;;;;;8.40;87.64;99628.63;5059690;28;20285;-74
2022/02/23 06:01:19;;;;;;;0.67;0.43;;;;;;;8.45;86.24;99636.84;5060817;28;20233;-74
2022/02/23 06:03:56;;;;;;;1.03;0.50;;;;;;;8.31;87.41;99636.00;5077237;23;20230;-74
2022/02/23 06:06:24;;;;;;;0.50;0.40;;;;;;;8.38;87.49;99660.06;5040005;28;20253;-73
2022/02/23 06:09:14;;;;;;;1.00;0.50;;;;;;;8.38;86.72;99658.22;5050632;23;20244;-75
2022/02/23 06:11:49;;;;;;;0.83;0.50;;;;;;;8.41;86.22;99683.66;5083809;28;20270;-74
2022/02/23 06:14:20;;;;;;;0.73;0.40;;;;;;;8.53;83.08;99674.03;5054406;22;20240;-74
2022/02/23 06:16:50;;;;;;;0.90;0.40;;;;;;;8.69;81.09;99680.78;5010080;28;20226;-73
2022/02/23 06:19:28;;;;;;;1.10;0.50;;;;;;;8.83;78.48;99679.75;5011546;28;20200;-74
2022/02/23 06:22:01;;;;;;;1.00;0.30;;;;;;;8.87;76.25;99686.31;5009311;28;20691;-73
2022/02/23 06:24:32;;;;;;;1.07;0.50;;;;;;;8.84;75.79;99711.63;5028050;28;20223;-75
2022/02/23 06:27:07;;;;;;;0.30;0.30;;;;;;;8.86;74.43;99702.59;5010390;28;20219;-75
2022/02/23 06:29:41;;;;;;;0.53;0.30;;;;;;;8.97;74.80;99713.44;5014209;28;20283;-73
2022/02/23 06:32:20;;;;;;;2.23;0.40;;;;;;;8.81;75.75;99730.75;5030871;28;20510;-74
2022/02/23 06:34:53;;;;;;;0.60;0.47;;;;;;;8.78;77.31;99725.78;5025906;28;20233;-74
2022/02/23 06:37:22;;;;;;;1.30;0.60;;;;;;;8.81;78.02;99728.06;5029168;28;20610;-74
2022/02/23 06:42:35;;;;;;;0.73;0.43;;;;;;;8.85;75.33;99744.50;5011816;28;20247;-73
2022/02/23 06:45:10;;;;;;;0.40;0.40;;;;;;;9.02;74.49;99763.59;5009912;28;20255;-77
2022/02/23 06:47:41;;;;;;;0.30;0.30;;;;;;;9.01;74.76;99768.13;5051100;23;20226;-74
2022/02/23 06:50:09;;;;;;;0.70;0.50;;;;;;;8.93;75.08;99776.34;5017310;28;20233;-74
2022/02/23 06:52:43;;;;;;;0.70;0.40;;;;;;;9.01;74.09;99794.84;5046003;23;20232;-74
2022/02/23 06:55:15;;;;;;;1.03;0.50;;;;;;;9.09;72.45;99796.53;5063977;28;20221;-74
2022/02/23 06:57:51;;;;;;;0.73;0.50;;;;;;;9.04;71.02;99804.31;5084880;28;20468;-73
2022/02/23 07:00:18;;;;;;;1.80;0.60;;;;;;;8.94;71.64;99819.94;5085330;28;20218;-73
2022/02/23 07:02:55;;;;;;;0.90;0.60;;;;;;;8.98;71.66;99830.00;5078710;22;20235;-73
2022/02/23 07:05:37;;;;;;;1.10;0.43;;;;;;;8.99;72.23;99839.69;5042689;28;20237;-75
2022/02/23 07:08:11;;;;;;;1.07;0.50;;;;;;;9.16;71.48;99861.47;5051244;28;20202;-74
2022/02/23 07:10:47;;;;;;;0.77;0.40;;;;;;;9.08;68.72;99865.19;5056082;28;20244;-75
2022/02/23 07:13:34;;;;;;;1.23;0.63;;;;;;;9.13;69.24;99886.78;5044053;28;20229;-73
2022/02/23 07:16:02;;;;;;;0.70;0.40;;;;;;;9.23;66.99;99878.38;5049230;28;20286;-74
2022/02/23 07:18:44;;;;;;;0.67;0.40;;;;;;;9.23;67.04;99892.56;5042112;28;20248;-74
2022/02/23 07:21:18;;;;;;;0.80;0.50;;;;;;;9.31;66.62;99904.88;5067193;23;20253;-73
2022/02/23 07:23:47;;;;;;;0.90;0.40;;;;;;;9.37;66.20;99919.31;5050223;28;20272;-74
2022/02/23 07:26:18;;;;;;;1.40;0.50;;;;;;;9.35;64.81;99924.00;5058381;22;20216;-74
2022/02/23 07:28:50;;;;;;;0.77;0.50;;;;;;;9.52;64.37;99928.75;5052174;28;20221;-73
2022/02/23 07:31:19;;;;;;;2.70;0.57;;;;;;;9.62;64.16;99939.03;5068130;28;20523;-72
2022/02/23 07:33:50;;;;;;;1.00;0.50;;;;;;;9.64;63.76;99940.50;5082394;23;20282;-73
2022/02/23 07:36:20;;;;;;;1.60;0.53;;;;;;;9.56;64.58;99956.75;5071426;28;20639;-73
2022/02/23 07:38:55;;;;;;;1.47;0.60;;;;;;;9.51;68.55;99974.44;5082049;22;20238;-72
2022/02/23 07:41:23;;;;;;;2.13;0.63;;;;;;;9.56;73.67;99993.38;5024304;28;20290;-73
2022/02/23 07:44:11;;;;;;;0.67;0.50;;;;;;;9.16;75.01;99998.63;5052959;23;20260;-73
2022/02/23 07:46:43;;;;;;;1.03;0.50;;;;;;;9.18;73.54;99985.91;5067192;23;20290;-74
2022/02/23 07:49:11;;;;;;;1.17;0.53;;;;;;;8.88;74.53;99983.72;5067710;28;20700;-73
2022/02/23 07:51:41;;;;;;;2.57;0.70;;;;;;;8.54;76.22;100006.00;5066894;28;20231;-73
2022/02/23 07:54:12;;;;;;;1.37;0.70;;;;;;;8.27;77.62;100003.13;5077019;22;20240;-73
2022/02/23 07:56:43;;;;;;;0.93;0.70;;;;;;;8.47;77.42;99999.78;5025382;28;20527;-73
2022/02/23 07:59:11;;;;;;;2.00;0.70;;;;;;;8.69;75.75;99994.13;5042558;28;20229;-73
2022/02/23 08:01:56;;;;;;;2.20;0.60;;;;;;;8.77;72.19;99995.84;5043536;28;20241;-73
2022/02/23 08:04:24;;;;;;;2.30;0.93;;;;;;;8.98;71.44;100005.56;5043389;28;20637;-73
2022/02/23 08:06:57;;;;;;;1.77;0.70;;;;;;;9.07;69.55;100012.38;5039843;28;20233;-73
2022/02/23 08:09:30;;;;;;;1.73;0.70;;;;;;;9.19;69.25;100008.91;5029489;28;20229;-73
2022/02/23 08:12:00;;;;;;;1.17;0.40;;;;;;;9.23;67.42;100020.06;5045207;28;20229;-73
2022/02/23 08:14:37;;;;;;;1.77;0.50;;;;;;;9.09;66.42;100023.72;5040468;23;20229;-74
2022/02/23 08:19:52;;;;;;;2.87;0.60;;;;;;;9.03;65.28;100024.50;5048998;28;20217;-72
2022/02/23 08:22:28;;;;;;;2.30;1.00;;;;;;;9.06;65.66;100024.91;5051880;28;20229;-74
2022/02/23 08:24:57;;;;;;;1.17;0.60;;;;;;;9.19;64.17;100040.19;5029529;28;20229;-73
2022/02/23 08:27:28;;;;;;;2.80;0.60;;;;;;;9.28;64.02;100041.66;5052676;28;20504;-74
2022/02/23 08:29:58;;;;;;;1.17;0.47;;;;;;;9.33;60.56;100033.88;5052203;28;20230;-73
2022/02/23 08:32:32;;;;;;;1.47;0.77;;;;;;;9.40;60.68;100053.41;5045295;28;20218;-73
2022/02/23 08:35:15;;;;;;;2.43;0.60;;;;;;;9.33;60.53;100049.09;5077259;23;20560;-73
2022/02/23 08:37:55;;;;;;;1.90;0.80;;;;;;;9.40;60.59;100045.41;5077002;28;20236;-73
2022/02/23 08:40:26;;;;;;;1.30;0.60;;;;;;;9.57;60.03;100057.34;5086283;28;20229;-73
2022/02/23 08:42:57;;;;;;;1.23;0.80;;;;;;;9.73;56.78;100053.47;5085673;28;20224;-73
2022/02/23 08:45:28;;;;;;;1.77;0.60;;;;;;;9.77;54.65;100072.63;5085140;28;20225;-73
2022/02/23 08:47:55;;;;;;;2.43;0.70;;;;;;;9.69;54.73;100060.28;5086184;28;20660;-73
2022/02/23 08:50:28;;;;;;;1.10;0.60;;;;;;;9.82;53.82;100068.31;5087758;28;20248;-74
2022/02/23 08:52:58;;;;;;;1.63;0.80;;;;;;;10.00;53.04;100078.41;5090396;28;20221;-73
2022/02/23 08:55:31;;;;;;;2.27;0.70;;;;;;;9.91;51.33;100080.47;5066272;28;20256;-73
2022/02/23 08:58:01;;;;;;;3.03;0.70;;;;;;;9.80;50.88;100096.31;5069639;28;20544;-73
2022/02/23 09:00:36;;;;;;;0.67;0.40;;;;;;;9.84;50.19;100111.78;5083270;28;20292;-74
2022/02/23 09:03:04;;;;;;;2.93;0.70;;;;;;;9.88;48.75;100096.94;5091145;28;20229;-74
2022/02/23 09:05:33;;;;;;;2.10;0.90;;;;;;;9.97;48.17;100102.94;5069579;28;20216;-74
2022/02/23 09:08:06;;;;;;;2.37;0.80;;;;;;;10.03;47.99;100110.94;5095171;28;20244;-74
2022/02/23 09:10:43;;;;;;;1.63;0.70;;;;;;;10.07;47.97;100114.91;5081020;28;20611;-73
2022/02/23 09:13:26;;;;;;;1.37;0.60;;;;;;;9.98;47.87;100124.16;5086128;28;20222;-73
2022/02/23 09:15:53;;;;;;;2.60;0.57;;;;;;;10.08;47.21;100137.09;5087088;28;20235;-73
2022/02/23 09:18:27;;;;;;;2.63;0.70;;;;;;;10.22;47.54;100130.78;5095547;28;20231;-74
2022/02/23 09:21:10;;;;;;;2.37;0.67;;;;;;;10.24;46.27;100127.91;5096674;22;20221;-73
2022/02/23 09:23:45;;;;;;;2.70;0.80;;;;;;;10.38;46.95;100154.47;5042238;28;20245;-73
2022/02/23 09:26:12;;;;;;;2.73;0.70;;;;;;;10.56;46.76;100146.66;5065124;28;20585;-74
2022/02/23 09:28:43;;;;;;;2.93;0.90;;;;;;;10.83;46.78;100166.19;5047964;28;20297;-73
2022/02/23 09:31:12;;;;;;;3.87;1.00;;;;;;;10.82;46.90;100161.91;5069496;28;20576;-73
2022/02/23 09:33:42;;;;;;;3.17;0.70;;;;;;;10.56;46.66;100164.56;5061172;28;20261;-74
2022/02/23 09:36:18;;;;;;;1.97;0.80;;;;;;;10.40;46.81;100168.50;5042465;28;20260;-73
2022/02/23 09:38:48;;;;;;;2.77;0.70;;;;;;;10.27;45.25;100173.84;5066990;28;20229;-73
2022/02/23 09:41:37;;;;;;;2.60;0.90;;;;;;;10.09;45.77;100181.59;5061845;28;20293;-73
2022/02/23 09:44:08;;;;;;;3.20;0.70;;;;;;;10.14;45.16;100184.50;5089042;22;20281;-73
2022/02/23 09:46:41;;;;;;;2.70;0.70;;;;;;;10.10;46.29;100178.72;5057261;28;20228;-73
2022/02/23 09:49:15;;;;;;;2.40;0.60;;;;;;;10.13;46.32;100183.66;5069875;28;20236;-73
2022/02/23 09:51:48;;;;;;;2.43;0.80;;;;;;;10.10;46.52;100180.59;5055869;23;20258;-73
2022/02/23 09:54:20;;;;;;;2.47;0.80;;;;;;;10.23;46.72;100185.16;5044064;28;20221;-73
2022/02/23 09:56:47;;;;;;;2.00;0.70;;;;;;;10.27;47.30;100192.56;5046427;28;20227;-73
2022/02/23 09:59:17;;;;;;;2.20;0.90;;;;;;;10.41;46.70;100183.53;5056897;28;20252;-75
2022/02/23 10:01:50;;;;;;;2.67;0.73;;;;;;;10.61;46.35;100194.25;5069738;28;20323;-73
2022/02/23 10:04:22;;;;;;;1.93;0.80;;;;;;;10.63;45.37;100194.06;5063646;28;20232;-73
2022/02/23 10:06:50;;;;;;;3.33;0.80;;;;;;;10.52;45.52;100184.78;5047402;28;20256;-75
2022/02/23 10:09:29;;;;;;;2.50;0.90;;;;;;;10.57;44.86;100199.22;5066674;28;20229;-74
2022/02/23 10:11:58;;;;;;;2.57;0.80;;;;;;;10.62;43.84;100198.59;5045926;28;20222;-74
2022/02/23 10:14:30;;;;;;;1.50;0.67;;;;;;;10.58;43.63;100219.63;5075132;23;20264;-74
2022/02/23 10:17:03;;;;;;;1.63;0.80;;;;;;;10.49;44.57;100210.13;5066572;28;20223;-73
2022/02/23 10:19:50;;;;;;;3.13;0.80;;;;;;;10.29;44.56;100211.13;5064470;28;20181;-74
2022/02/23 10:22:23;;;;;;;2.10;0.67;;;;;;;10.14;44.95;100219.31;5065833;28;20225;-73
2022/02/23 10:25:01;;;;;;;1.20;0.70;;;;;;;10.34;45.17;100222.88;5063528;28;20309;-74
2022/02/23 10:27:38;;;;;;;2.60;0.63;;;;;;;10.38;44.16;100226.81;5060331;28;20290;-75
2022/02/23 10:30:13;;;;;;;3.10;0.80;;;;;;;10.29;43.74;100213.81;5066352;28;20234;-74
2022/02/23 10:32:52;;;;;;;2.27;0.50;;;;;;;10.57;44.09;100225.19;5020324;28;20220;-75
2022/02/23 10:35:29;;;;;;;3.20;0.90;;;;;;;10.73;43.72;100226.63;5044307;28;20261;-73
2022/02/23 10:37:56;;;;;;;1.83;0.97;;;;;;;10.84;44.25;100231.38;5044634;28;20278;-74
2022/02/23 10:40:28;;;;;;;5.27;1.07;;;;;;;10.99;42.33;100216.72;5066122;28;20311;-74
2022/02/23 10:42:57;;;;;;;2.57;0.77;;;;;;;11.10;42.60;100217.97;5041458;28;20229;-74
2022/02/23 10:45:25;;;;;;;1.70;0.60;;;;;;;11.08;41.69;100209.28;5069734;28;20522;-74
2022/02/23 10:47:53;;;;;;;5.57;0.70;;;;;;;11.11;41.29;100210.72;5057389;28;20286;-74
2022/02/23 10:50:24;;;;;;;3.40;0.97;;;;;;;11.07;42.15;100193.41;5074774;23;20236;-74
2022/02/23 10:52:57;;;;;;;1.90;0.73;;;;;;;11.00;42.33;100198.78;5084832;23;20685;-73
2022/02/23 10:55:32;;;;;;;4.13;1.20;;;;;;;10.97;41.91;100200.00;5043114;28;20658;-74
2022/02/23 10:58:05;;;;;;;3.60;0.83;;;;;;;11.09;42.71;100197.53;5054553;28;20275;-73
2022/02/23 11:00:42;;;;;;;3.40;1.23;;;;;;;11.09;41.90;100184.13;5037115;28;20236;-73
2022/02/23 11:03:13;;;;;;;3.83;0.90;;;;;;;11.11;42.32;100191.94;5051170;28;20218;-72
2022/02/23 11:05:40;;;;;;;2.63;0.80;;;;;;;11.23;42.42;100196.47;5063008;23;20234;-73
2022/02/23 11:08:11;;;;;;;2.63;0.90;;;;;;;11.18;41.92;100182.88;5047979;28;20572;-74
2022/02/23 11:10:39;;;;;;;2.27;0.73;;;;;;;11.12;42.07;100183.69;5052514;28;20321;-74
2022/02/23 11:13:08;;;;;;;2.50;0.70;;;;;;;11.24;41.69;100195.44;5045116;28;20636;-73
2022/02/23 11:15:39;;;;;;;2.00;0.93;;;;;;;11.32;41.09;100187.16;5041805;28;20233;-73
2022/02/23 11:18:11;;;;;;;1.73;0.80;;;;;;;11.35;41.07;100183.22;5047462;28;20485;-74
2022/02/23 11:20:44;;;;;;;1.63;0.90;;;;;;;11.39;40.34;100174.53;5062219;28;20353;-73
2022/02/23 11:23:19;;;;;;;2.43;1.03;;;;;;;11.44;40.78;100181.94;5061373;28;20228;-74
2022/02/23 11:25:49;;;;;;;1.80;0.60;;;;;;;11.52;39.55;100176.38;5040689;28;20235;-73
2022/02/23 11:28:25;;;;;;;1.73;0.80;;;;;;;11.47;39.87;100187.75;5039148;28;20636;-73
2022/02/23 11:30:56;;;;;;;2.03;0.80;;;;;;;11.43;39.12;100186.50;5050050;28;20239;-74
2022/02/23 11:33:58;;;;;;;1.93;0.87;;;;;;;11.42;40.14;100182.19;5054466;28;20248;-75
2022/02/23 11:36:46;;;;;;;3.33;0.80;;;;;;;11.51;40.23;100185.44;5051809;28;20249;-74
2022/02/23 11:39:25;;;;;;;1.83;0.60;;;;;;;11.67;40.58;100178.75;5033140;28;20247;-73
2022/02/23 11:41:58;;;;;;;2.37;0.70;;;;;;;11.74;39.33;100174.22;5064212;28;20243;-73
2022/02/23 11:44:35;;;;;;;1.67;0.60;;;;;;;11.77;39.47;100171.94;5066241;28;20692;-73
2022/02/23 11:47:16;;;;;;;2.20;0.73;;;;;;;11.77;39.79;100179.16;5068099;28;20303;-74
2022/02/23 11:49:53;;;;;;;1.80;0.70;;;;;;;11.80;39.31;100173.38;5085523;22;20664;-73
2022/02/23 11:52:29;;;;;;;1.27;0.67;;;;;;;11.87;39.69;100163.41;5051350;23;20228;-73
2022/02/23 11:55:15;;;;;;;2.37;0.90;;;;;;;12.06;39.68;100169.72;5066110;28;20250;-73
2022/02/23 11:57:51;;;;;;;2.80;0.80;;;;;;;12.00;39.37;100160.66;5077130;28;20679;-73
2022/02/23 12:00:20;;;;;;;1.43;0.70;;;;;;;11.82;39.19;100166.75;5081427;28;20240;-73
2022/02/23 12:03:01;;;;;;;2.20;0.70;;;;;;;11.76;40.67;100183.69;5063529;28;20229;-73
2022/02/23 12:05:56;;;;;;;1.73;0.73;;;;;;;11.74;40.53;100168.88;5073664;28;20248;-74
2022/02/23 12:08:32;;;;;;;3.03;0.83;;;;;;;11.94;40.39;100183.03;5076839;28;20282;-73
2022/02/23 12:11:13;;;;;;;2.13;0.80;;;;;;;12.08;40.48;100184.59;5079511;28;20220;-73
2022/02/23 12:13:58;;;;;;;2.07;0.90;;;;;;;12.24;41.43;100175.16;5080169;28;20607;-73
2022/02/23 12:16:32;;;;;;;2.43;0.80;;;;;;;12.49;41.65;100183.28;5054839;28;20528;-73